sensor_id;sensor_type;location;lat;lon;timestamp;P1;durP1;ratioP1;P2;durP2;ratioP2
25609;SDS011;13479;49.044;8.716;2023-08-24T00:00:16;7.95;;;3.20;;
25609;SDS011;13479;49.044;8.716;2023-08-24T00:02:41;7.05;;;3.45;;
25609;SDS011;13479;49.044;8.716;2023-08-24T00:05:06;6.53;;;3.17;;
25609;SDS011;13479;49.044;8.716;2023-08-24T00:07:32;6.60;;;3.20;;
25609;SDS011;13479;49.044;8.716;2023-08-24T00:09:57;8.10;;;3.58;;
25609;SDS011;13479;49.044;8.716;2023-08-24T00:12:23;12.20;;;3.30;;
25609;SDS011;13479;49.044;8.716;2023-08-24T00:14:48;10.32;;;3.25;;
25609;SDS011;13479;49.044;8.716;2023-08-24T00:17:13;7.28;;;3.28;;
25609;SDS011;13479;49.044;8.716;2023-08-24T00:19:39;6.70;;;3.42;;
25609;SDS011;13479;49.044;8.716;2023-08-24T00:22:05;4.88;;;3.40;;
25609;SDS011;13479;49.044;8.716;2023-08-24T00:24:30;7.95;;;3.67;;
25609;SDS011;13479;49.044;8.716;2023-08-24T00:26:55;8.30;;;3.40;;
25609;SDS011;13479;49.044;8.716;2023-08-24T00:29:21;5.72;;;3.20;;
25609;SDS011;13479;49.044;8.716;2023-08-24T00:31:46;11.10;;;3.65;;
25609;SDS011;13479;49.044;8.716;2023-08-24T00:34:12;10.15;;;3.58;;
25609;SDS011;13479;49.044;8.716;2023-08-24T00:36:37;6.63;;;3.05;;
25609;SDS011;13479;49.044;8.716;2023-08-24T00:39:02;4.78;;;3.22;;
25609;SDS011;13479;49.044;8.716;2023-08-24T00:41:28;5.20;;;3.20;;
25609;SDS011;13479;49.044;8.716;2023-08-24T00:43:53;8.20;;;3.20;;
25609;SDS011;13479;49.044;8.716;2023-08-24T00:46:18;7.25;;;3.33;;
25609;SDS011;13479;49.044;8.716;2023-08-24T00:48:44;4.78;;;2.85;;
25609;SDS011;13479;49.044;8.716;2023-08-24T00:51:10;7.35;;;2.92;;
25609;SDS011;13479;49.044;8.716;2023-08-24T00:53:35;7.75;;;3.13;;
25609;SDS011;13479;49.044;8.716;2023-08-24T00:56:02;7.57;;;3.08;;
25609;SDS011;13479;49.044;8.716;2023-08-24T00:58:28;7.13;;;3.05;;
25609;SDS011;13479;49.044;8.716;2023-08-24T01:00:54;8.80;;;3.40;;
25609;SDS011;13479;49.044;8.716;2023-08-24T01:03:22;4.90;;;3.05;;
25609;SDS011;13479;49.044;8.716;2023-08-24T01:05:48;4.97;;;3.17;;
25609;SDS011;13479;49.044;8.716;2023-08-24T01:08:13;6.10;;;3.00;;
25609;SDS011;13479;49.044;8.716;2023-08-24T01:10:40;6.40;;;2.95;;
25609;SDS011;13479;49.044;8.716;2023-08-24T01:13:33;5.28;;;2.58;;
25609;SDS011;13479;49.044;8.716;2023-08-24T01:16:13;5.30;;;2.80;;
25609;SDS011;13479;49.044;8.716;2023-08-24T01:18:42;4.78;;;2.90;;
25609;SDS011;13479;49.044;8.716;2023-08-24T01:21:09;7.68;;;3.25;;
25609;SDS011;13479;49.044;8.716;2023-08-24T01:26:21;5.50;;;3.20;;
25609;SDS011;13479;49.044;8.716;2023-08-24T01:28:47;5.22;;;2.95;;
25609;SDS011;13479;49.044;8.716;2023-08-24T01:31:16;5.65;;;2.90;;
25609;SDS011;13479;49.044;8.716;2023-08-24T01:33:42;6.82;;;3.20;;
25609;SDS011;13479;49.044;8.716;2023-08-24T01:36:08;6.80;;;3.22;;
25609;SDS011;13479;49.044;8.716;2023-08-24T01:38:34;5.18;;;3.35;;
25609;SDS011;13479;49.044;8.716;2023-08-24T01:41:14;6.70;;;3.45;;
25609;SDS011;13479;49.044;8.716;2023-08-24T01:43:45;5.22;;;3.05;;
25609;SDS011;13479;49.044;8.716;2023-08-24T01:46:14;9.10;;;3.10;;
25609;SDS011;13479;49.044;8.716;2023-08-24T01:48:42;6.38;;;3.28;;
25609;SDS011;13479;49.044;8.716;2023-08-24T01:51:09;6.13;;;3.13;;
25609;SDS011;13479;49.044;8.716;2023-08-24T01:53:35;5.15;;;3.17;;
25609;SDS011;13479;49.044;8.716;2023-08-24T01:56:07;6.15;;;3.22;;
25609;SDS011;13479;49.044;8.716;2023-08-24T01:58:33;5.72;;;3.53;;
25609;SDS011;13479;49.044;8.716;2023-08-24T02:00:58;6.80;;;3.75;;
25609;SDS011;13479;49.044;8.716;2023-08-24T02:03:23;6.13;;;3.30;;
25609;SDS011;13479;49.044;8.716;2023-08-24T02:05:49;11.85;;;3.63;;
25609;SDS011;13479;49.044;8.716;2023-08-24T02:08:14;8.30;;;3.40;;
25609;SDS011;13479;49.044;8.716;2023-08-24T02:10:39;9.63;;;3.60;;
25609;SDS011;13479;49.044;8.716;2023-08-24T02:13:04;7.88;;;3.25;;
25609;SDS011;13479;49.044;8.716;2023-08-24T02:15:30;7.57;;;3.30;;
25609;SDS011;13479;49.044;8.716;2023-08-24T02:17:55;7.20;;;3.65;;
25609;SDS011;13479;49.044;8.716;2023-08-24T02:20:20;5.43;;;3.67;;
25609;SDS011;13479;49.044;8.716;2023-08-24T02:22:45;7.22;;;3.45;;
25609;SDS011;13479;49.044;8.716;2023-08-24T02:25:11;6.10;;;3.63;;
25609;SDS011;13479;49.044;8.716;2023-08-24T02:27:36;7.22;;;3.38;;
25609;SDS011;13479;49.044;8.716;2023-08-24T02:30:01;5.70;;;3.40;;
25609;SDS011;13479;49.044;8.716;2023-08-24T02:32:27;6.07;;;3.50;;
25609;SDS011;13479;49.044;8.716;2023-08-24T02:34:52;8.10;;;3.45;;
25609;SDS011;13479;49.044;8.716;2023-08-24T02:37:17;7.05;;;3.38;;
25609;SDS011;13479;49.044;8.716;2023-08-24T02:39:42;8.52;;;3.50;;
25609;SDS011;13479;49.044;8.716;2023-08-24T02:42:08;5.32;;;3.53;;
25609;SDS011;13479;49.044;8.716;2023-08-24T02:44:33;8.10;;;3.53;;
25609;SDS011;13479;49.044;8.716;2023-08-24T02:46:58;9.77;;;3.53;;
25609;SDS011;13479;49.044;8.716;2023-08-24T02:49:23;6.30;;;3.55;;
25609;SDS011;13479;49.044;8.716;2023-08-24T02:51:49;8.52;;;3.97;;
25609;SDS011;13479;49.044;8.716;2023-08-24T02:54:14;6.32;;;3.72;;
25609;SDS011;13479;49.044;8.716;2023-08-24T02:56:39;6.35;;;3.60;;
25609;SDS011;13479;49.044;8.716;2023-08-24T02:59:05;7.80;;;4.07;;
25609;SDS011;13479;49.044;8.716;2023-08-24T03:01:30;10.10;;;4.60;;
25609;SDS011;13479;49.044;8.716;2023-08-24T03:03:56;11.57;;;4.43;;
25609;SDS011;13479;49.044;8.716;2023-08-24T03:06:21;7.70;;;4.53;;
25609;SDS011;13479;49.044;8.716;2023-08-24T03:08:48;6.65;;;4.28;;
25609;SDS011;13479;49.044;8.716;2023-08-24T03:11:14;12.27;;;4.40;;
25609;SDS011;13479;49.044;8.716;2023-08-24T03:13:39;6.45;;;4.30;;
25609;SDS011;13479;49.044;8.716;2023-08-24T03:16:05;7.25;;;4.75;;
25609;SDS011;13479;49.044;8.716;2023-08-24T03:18:31;7.10;;;4.15;;
25609;SDS011;13479;49.044;8.716;2023-08-24T03:20:57;8.98;;;4.30;;
25609;SDS011;13479;49.044;8.716;2023-08-24T03:23:23;7.60;;;4.32;;
25609;SDS011;13479;49.044;8.716;2023-08-24T03:25:48;7.25;;;4.30;;
25609;SDS011;13479;49.044;8.716;2023-08-24T03:28:13;7.95;;;4.43;;
25609;SDS011;13479;49.044;8.716;2023-08-24T03:30:44;8.75;;;4.22;;
25609;SDS011;13479;49.044;8.716;2023-08-24T03:33:11;8.73;;;3.97;;
25609;SDS011;13479;49.044;8.716;2023-08-24T03:35:36;10.18;;;4.60;;
25609;SDS011;13479;49.044;8.716;2023-08-24T03:38:01;5.93;;;4.47;;
25609;SDS011;13479;49.044;8.716;2023-08-24T03:40:27;7.32;;;4.88;;
25609;SDS011;13479;49.044;8.716;2023-08-24T03:42:53;11.82;;;4.20;;
25609;SDS011;13479;49.044;8.716;2023-08-24T03:45:18;5.88;;;4.15;;
25609;SDS011;13479;49.044;8.716;2023-08-24T03:47:44;7.00;;;4.15;;
25609;SDS011;13479;49.044;8.716;2023-08-24T03:50:09;10.48;;;4.60;;
25609;SDS011;13479;49.044;8.716;2023-08-24T03:52:35;5.43;;;4.15;;
25609;SDS011;13479;49.044;8.716;2023-08-24T03:55:00;8.38;;;4.53;;
25609;SDS011;13479;49.044;8.716;2023-08-24T03:57:25;6.90;;;4.53;;
25609;SDS011;13479;49.044;8.716;2023-08-24T03:59:52;10.75;;;4.57;;
25609;SDS011;13479;49.044;8.716;2023-08-24T04:02:18;6.57;;;4.50;;
25609;SDS011;13479;49.044;8.716;2023-08-24T04:04:43;7.95;;;4.53;;
25609;SDS011;13479;49.044;8.716;2023-08-24T04:07:08;12.63;;;4.60;;
25609;SDS011;13479;49.044;8.716;2023-08-24T04:09:34;6.45;;;4.25;;
25609;SDS011;13479;49.044;8.716;2023-08-24T04:11:59;6.35;;;3.80;;
25609;SDS011;13479;49.044;8.716;2023-08-24T04:14:24;7.90;;;3.67;;
25609;SDS011;13479;49.044;8.716;2023-08-24T04:16:49;7.70;;;3.60;;
25609;SDS011;13479;49.044;8.716;2023-08-24T04:19:15;9.07;;;3.63;;
25609;SDS011;13479;49.044;8.716;2023-08-24T04:21:40;7.45;;;3.60;;
25609;SDS011;13479;49.044;8.716;2023-08-24T04:24:05;6.82;;;3.50;;
25609;SDS011;13479;49.044;8.716;2023-08-24T04:26:31;6.75;;;3.60;;
25609;SDS011;13479;49.044;8.716;2023-08-24T04:28:56;6.22;;;3.55;;
25609;SDS011;13479;49.044;8.716;2023-08-24T04:31:21;8.27;;;3.88;;
25609;SDS011;13479;49.044;8.716;2023-08-24T04:33:47;6.88;;;4.43;;
25609;SDS011;13479;49.044;8.716;2023-08-24T04:36:12;6.90;;;3.80;;
25609;SDS011;13479;49.044;8.716;2023-08-24T04:38:37;6.47;;;4.10;;
25609;SDS011;13479;49.044;8.716;2023-08-24T04:41:03;7.53;;;4.18;;
25609;SDS011;13479;49.044;8.716;2023-08-24T04:43:32;8.77;;;4.20;;
25609;SDS011;13479;49.044;8.716;2023-08-24T04:45:58;7.03;;;4.03;;
25609;SDS011;13479;49.044;8.716;2023-08-24T04:48:23;7.97;;;4.05;;
25609;SDS011;13479;49.044;8.716;2023-08-24T04:50:50;4.80;;;3.67;;
25609;SDS011;13479;49.044;8.716;2023-08-24T04:53:17;6.20;;;3.33;;
25609;SDS011;13479;49.044;8.716;2023-08-24T04:55:43;5.18;;;2.85;;
25609;SDS011;13479;49.044;8.716;2023-08-24T04:58:09;5.97;;;3.13;;
25609;SDS011;13479;49.044;8.716;2023-08-24T05:00:35;6.97;;;3.10;;
25609;SDS011;13479;49.044;8.716;2023-08-24T05:03:04;6.60;;;3.00;;
25609;SDS011;13479;49.044;8.716;2023-08-24T05:05:30;6.03;;;3.00;;
25609;SDS011;13479;49.044;8.716;2023-08-24T05:07:57;5.80;;;3.78;;
25609;SDS011;13479;49.044;8.716;2023-08-24T05:10:24;8.80;;;3.58;;
25609;SDS011;13479;49.044;8.716;2023-08-24T05:12:49;6.45;;;3.20;;
25609;SDS011;13479;49.044;8.716;2023-08-24T05:15:14;6.47;;;3.40;;
25609;SDS011;13479;49.044;8.716;2023-08-24T05:17:40;5.35;;;3.10;;
25609;SDS011;13479;49.044;8.716;2023-08-24T05:20:06;8.68;;;3.35;;
25609;SDS011;13479;49.044;8.716;2023-08-24T05:22:33;5.32;;;3.38;;
25609;SDS011;13479;49.044;8.716;2023-08-24T05:24:58;6.35;;;2.95;;
25609;SDS011;13479;49.044;8.716;2023-08-24T05:27:23;6.35;;;2.75;;
25609;SDS011;13479;49.044;8.716;2023-08-24T05:29:48;7.57;;;2.83;;
25609;SDS011;13479;49.044;8.716;2023-08-24T05:32:14;8.25;;;3.25;;
25609;SDS011;13479;49.044;8.716;2023-08-24T05:34:39;3.75;;;2.75;;
25609;SDS011;13479;49.044;8.716;2023-08-24T05:37:04;7.00;;;3.85;;
25609;SDS011;13479;49.044;8.716;2023-08-24T05:39:29;9.90;;;3.42;;
25609;SDS011;13479;49.044;8.716;2023-08-24T05:41:55;6.07;;;3.58;;
25609;SDS011;13479;49.044;8.716;2023-08-24T05:44:20;9.05;;;3.13;;
25609;SDS011;13479;49.044;8.716;2023-08-24T05:46:46;9.40;;;2.90;;
25609;SDS011;13479;49.044;8.716;2023-08-24T05:49:12;6.70;;;3.10;;
25609;SDS011;13479;49.044;8.716;2023-08-24T05:51:37;5.70;;;3.50;;
25609;SDS011;13479;49.044;8.716;2023-08-24T05:54:02;5.45;;;3.05;;
25609;SDS011;13479;49.044;8.716;2023-08-24T05:56:28;4.15;;;2.80;;
25609;SDS011;13479;49.044;8.716;2023-08-24T05:58:57;6.28;;;2.92;;
25609;SDS011;13479;49.044;8.716;2023-08-24T06:01:23;8.45;;;3.10;;
25609;SDS011;13479;49.044;8.716;2023-08-24T06:03:48;5.35;;;2.90;;
25609;SDS011;13479;49.044;8.716;2023-08-24T06:06:14;7.10;;;2.90;;
25609;SDS011;13479;49.044;8.716;2023-08-24T06:08:39;8.30;;;3.10;;
25609;SDS011;13479;49.044;8.716;2023-08-24T06:11:05;5.43;;;2.78;;
25609;SDS011;13479;49.044;8.716;2023-08-24T06:13:30;7.38;;;2.97;;
25609;SDS011;13479;49.044;8.716;2023-08-24T06:15:55;4.72;;;3.17;;
25609;SDS011;13479;49.044;8.716;2023-08-24T06:18:20;4.40;;;2.80;;
25609;SDS011;13479;49.044;8.716;2023-08-24T06:20:46;10.00;;;3.05;;
25609;SDS011;13479;49.044;8.716;2023-08-24T06:23:14;8.10;;;2.90;;
25609;SDS011;13479;49.044;8.716;2023-08-24T06:25:41;5.65;;;3.10;;
25609;SDS011;13479;49.044;8.716;2023-08-24T06:28:06;4.97;;;2.97;;
25609;SDS011;13479;49.044;8.716;2023-08-24T06:30:36;4.93;;;3.10;;
25609;SDS011;13479;49.044;8.716;2023-08-24T06:33:03;7.40;;;3.35;;
25609;SDS011;13479;49.044;8.716;2023-08-24T06:35:29;8.82;;;3.05;;
25609;SDS011;13479;49.044;8.716;2023-08-24T06:37:54;5.00;;;3.30;;
25609;SDS011;13479;49.044;8.716;2023-08-24T06:40:19;11.95;;;3.00;;
25609;SDS011;13479;49.044;8.716;2023-08-24T06:42:45;6.35;;;2.92;;
25609;SDS011;13479;49.044;8.716;2023-08-24T06:45:10;6.72;;;3.30;;
25609;SDS011;13479;49.044;8.716;2023-08-24T06:47:35;11.95;;;3.05;;
25609;SDS011;13479;49.044;8.716;2023-08-24T06:50:01;6.97;;;2.63;;
25609;SDS011;13479;49.044;8.716;2023-08-24T06:52:26;9.80;;;2.58;;
25609;SDS011;13479;49.044;8.716;2023-08-24T06:54:51;4.13;;;2.25;;
25609;SDS011;13479;49.044;8.716;2023-08-24T06:57:20;7.40;;;2.53;;
25609;SDS011;13479;49.044;8.716;2023-08-24T06:59:45;4.60;;;2.40;;
25609;SDS011;13479;49.044;8.716;2023-08-24T07:02:10;8.60;;;2.67;;
25609;SDS011;13479;49.044;8.716;2023-08-24T07:04:36;4.93;;;2.47;;
25609;SDS011;13479;49.044;8.716;2023-08-24T07:07:03;8.23;;;2.60;;
25609;SDS011;13479;49.044;8.716;2023-08-24T07:09:28;9.68;;;2.78;;
25609;SDS011;13479;49.044;8.716;2023-08-24T07:11:54;5.60;;;2.60;;
25609;SDS011;13479;49.044;8.716;2023-08-24T07:14:19;9.35;;;2.50;;
25609;SDS011;13479;49.044;8.716;2023-08-24T07:16:44;5.70;;;2.20;;
25609;SDS011;13479;49.044;8.716;2023-08-24T07:19:09;6.28;;;2.55;;
25609;SDS011;13479;49.044;8.716;2023-08-24T07:21:35;6.78;;;2.10;;
25609;SDS011;13479;49.044;8.716;2023-08-24T07:24:00;6.78;;;2.33;;
25609;SDS011;13479;49.044;8.716;2023-08-24T07:26:26;3.90;;;2.05;;
25609;SDS011;13479;49.044;8.716;2023-08-24T07:28:51;5.88;;;2.17;;
25609;SDS011;13479;49.044;8.716;2023-08-24T07:31:17;5.38;;;2.17;;
25609;SDS011;13479;49.044;8.716;2023-08-24T07:33:42;6.88;;;2.30;;
25609;SDS011;13479;49.044;8.716;2023-08-24T07:36:10;4.75;;;2.00;;
25609;SDS011;13479;49.044;8.716;2023-08-24T07:38:35;3.33;;;2.08;;
25609;SDS011;13479;49.044;8.716;2023-08-24T07:41:00;5.20;;;1.75;;
25609;SDS011;13479;49.044;8.716;2023-08-24T07:43:26;4.63;;;2.00;;
25609;SDS011;13479;49.044;8.716;2023-08-24T07:45:51;6.82;;;2.00;;
25609;SDS011;13479;49.044;8.716;2023-08-24T07:48:17;7.85;;;2.30;;
25609;SDS011;13479;49.044;8.716;2023-08-24T07:50:42;4.22;;;1.73;;
25609;SDS011;13479;49.044;8.716;2023-08-24T07:53:07;6.18;;;2.00;;
25609;SDS011;13479;49.044;8.716;2023-08-24T07:55:33;4.22;;;1.80;;
25609;SDS011;13479;49.044;8.716;2023-08-24T07:57:59;5.70;;;1.77;;
25609;SDS011;13479;49.044;8.716;2023-08-24T08:00:24;3.72;;;1.80;;
25609;SDS011;13479;49.044;8.716;2023-08-24T08:02:50;7.38;;;2.05;;
25609;SDS011;13479;49.044;8.716;2023-08-24T08:05:16;4.88;;;2.20;;
25609;SDS011;13479;49.044;8.716;2023-08-24T08:07:42;5.95;;;2.08;;
25609;SDS011;13479;49.044;8.716;2023-08-24T08:10:07;3.92;;;1.90;;
25609;SDS011;13479;49.044;8.716;2023-08-24T08:12:33;5.03;;;1.90;;
25609;SDS011;13479;49.044;8.716;2023-08-24T08:14:58;2.70;;;1.80;;
25609;SDS011;13479;49.044;8.716;2023-08-24T08:17:24;4.22;;;1.80;;
25609;SDS011;13479;49.044;8.716;2023-08-24T08:19:54;3.92;;;1.75;;
25609;SDS011;13479;49.044;8.716;2023-08-24T08:22:20;7.90;;;2.10;;
25609;SDS011;13479;49.044;8.716;2023-08-24T08:24:45;4.93;;;2.00;;
25609;SDS011;13479;49.044;8.716;2023-08-24T08:27:10;3.70;;;2.00;;
25609;SDS011;13479;49.044;8.716;2023-08-24T08:29:36;5.60;;;2.03;;
25609;SDS011;13479;49.044;8.716;2023-08-24T08:32:01;4.45;;;1.80;;
25609;SDS011;13479;49.044;8.716;2023-08-24T08:34:26;7.47;;;2.28;;
25609;SDS011;13479;49.044;8.716;2023-08-24T08:36:51;4.55;;;2.00;;
25609;SDS011;13479;49.044;8.716;2023-08-24T08:39:17;4.00;;;2.00;;
25609;SDS011;13479;49.044;8.716;2023-08-24T08:41:43;6.13;;;1.92;;
25609;SDS011;13479;49.044;8.716;2023-08-24T08:44:09;4.13;;;2.00;;
25609;SDS011;13479;49.044;8.716;2023-08-24T08:46:38;4.43;;;2.17;;
25609;SDS011;13479;49.044;8.716;2023-08-24T08:49:05;6.45;;;2.03;;
25609;SDS011;13479;49.044;8.716;2023-08-24T08:51:31;5.10;;;1.90;;
25609;SDS011;13479;49.044;8.716;2023-08-24T08:53:57;8.00;;;2.42;;
25609;SDS011;13479;49.044;8.716;2023-08-24T08:56:22;5.90;;;2.00;;
25609;SDS011;13479;49.044;8.716;2023-08-24T08:58:48;5.82;;;1.95;;
25609;SDS011;13479;49.044;8.716;2023-08-24T09:01:15;3.92;;;1.77;;
25609;SDS011;13479;49.044;8.716;2023-08-24T09:03:42;4.07;;;2.15;;
25609;SDS011;13479;49.044;8.716;2023-08-24T09:06:07;6.20;;;1.98;;
25609;SDS011;13479;49.044;8.716;2023-08-24T09:08:34;5.45;;;2.00;;
25609;SDS011;13479;49.044;8.716;2023-08-24T09:10:59;3.25;;;1.77;;
25609;SDS011;13479;49.044;8.716;2023-08-24T09:13:25;3.70;;;1.90;;
25609;SDS011;13479;49.044;8.716;2023-08-24T09:15:51;4.43;;;2.03;;
25609;SDS011;13479;49.044;8.716;2023-08-24T09:18:18;6.03;;;2.05;;
25609;SDS011;13479;49.044;8.716;2023-08-24T09:20:43;5.60;;;2.50;;
25609;SDS011;13479;49.044;8.716;2023-08-24T09:23:17;4.03;;;2.20;;
25609;SDS011;13479;49.044;8.716;2023-08-24T09:25:47;6.63;;;2.47;;
25609;SDS011;13479;49.044;8.716;2023-08-24T09:28:13;4.10;;;1.95;;
25609;SDS011;13479;49.044;8.716;2023-08-24T09:30:38;5.38;;;1.90;;
25609;SDS011;13479;49.044;8.716;2023-08-24T09:33:04;3.67;;;1.63;;
25609;SDS011;13479;49.044;8.716;2023-08-24T09:35:34;5.72;;;2.10;;
25609;SDS011;13479;49.044;8.716;2023-08-24T09:38:18;4.53;;;2.10;;
25609;SDS011;13479;49.044;8.716;2023-08-24T09:40:45;5.05;;;1.90;;
25609;SDS011;13479;49.044;8.716;2023-08-24T09:43:15;4.70;;;2.30;;
25609;SDS011;13479;49.044;8.716;2023-08-24T09:45:53;2.83;;;1.90;;
25609;SDS011;13479;49.044;8.716;2023-08-24T09:48:20;5.65;;;2.05;;
25609;SDS011;13479;49.044;8.716;2023-08-24T09:50:46;5.00;;;2.08;;
25609;SDS011;13479;49.044;8.716;2023-08-24T09:53:16;5.38;;;1.95;;
25609;SDS011;13479;49.044;8.716;2023-08-24T09:55:49;6.35;;;2.20;;
25609;SDS011;13479;49.044;8.716;2023-08-24T09:58:20;5.82;;;2.30;;
25609;SDS011;13479;49.044;8.716;2023-08-24T10:00:47;4.50;;;2.10;;
25609;SDS011;13479;49.044;8.716;2023-08-24T10:03:15;6.75;;;2.25;;
25609;SDS011;13479;49.044;8.716;2023-08-24T10:05:45;5.53;;;2.33;;
25609;SDS011;13479;49.044;8.716;2023-08-24T10:08:12;4.70;;;2.30;;
25609;SDS011;13479;49.044;8.716;2023-08-24T10:10:39;3.95;;;2.40;;
25609;SDS011;13479;49.044;8.716;2023-08-24T10:13:08;6.22;;;2.42;;
25609;SDS011;13479;49.044;8.716;2023-08-24T10:15:42;2.90;;;2.00;;
25609;SDS011;13479;49.044;8.716;2023-08-24T10:18:11;3.65;;;2.03;;
25609;SDS011;13479;49.044;8.716;2023-08-24T10:20:38;5.60;;;2.60;;
25609;SDS011;13479;49.044;8.716;2023-08-24T10:23:03;3.75;;;1.95;;
25609;SDS011;13479;49.044;8.716;2023-08-24T10:25:29;4.70;;;2.40;;
25609;SDS011;13479;49.044;8.716;2023-08-24T10:27:54;3.40;;;2.28;;
25609;SDS011;13479;49.044;8.716;2023-08-24T10:30:22;5.45;;;2.55;;
25609;SDS011;13479;49.044;8.716;2023-08-24T10:32:48;3.95;;;2.78;;
25609;SDS011;13479;49.044;8.716;2023-08-24T10:35:15;7.68;;;2.60;;
25609;SDS011;13479;49.044;8.716;2023-08-24T10:37:41;4.57;;;2.20;;
25609;SDS011;13479;49.044;8.716;2023-08-24T10:40:10;2.85;;;2.10;;
25609;SDS011;13479;49.044;8.716;2023-08-24T10:42:45;4.90;;;2.28;;
25609;SDS011;13479;49.044;8.716;2023-08-24T10:45:12;4.43;;;2.50;;
25609;SDS011;13479;49.044;8.716;2023-08-24T10:47:45;7.28;;;2.60;;
25609;SDS011;13479;49.044;8.716;2023-08-24T10:50:11;2.97;;;1.73;;
25609;SDS011;13479;49.044;8.716;2023-08-24T10:52:37;5.55;;;2.30;;
25609;SDS011;13479;49.044;8.716;2023-08-24T10:55:04;6.38;;;2.70;;
25609;SDS011;13479;49.044;8.716;2023-08-24T10:57:47;3.28;;;2.10;;
25609;SDS011;13479;49.044;8.716;2023-08-24T11:00:25;2.92;;;2.00;;
25609;SDS011;13479;49.044;8.716;2023-08-24T11:02:52;6.50;;;2.30;;
25609;SDS011;13479;49.044;8.716;2023-08-24T11:07:47;3.60;;;2.40;;
25609;SDS011;13479;49.044;8.716;2023-08-24T11:15:41;4.88;;;2.28;;
25609;SDS011;13479;49.044;8.716;2023-08-24T11:18:13;4.40;;;2.53;;
25609;SDS011;13479;49.044;8.716;2023-08-24T11:20:42;7.15;;;2.30;;
25609;SDS011;13479;49.044;8.716;2023-08-24T11:23:08;4.85;;;2.40;;
25609;SDS011;13479;49.044;8.716;2023-08-24T11:25:37;6.68;;;2.10;;
25609;SDS011;13479;49.044;8.716;2023-08-24T11:28:03;3.75;;;2.20;;
25609;SDS011;13479;49.044;8.716;2023-08-24T11:30:29;5.18;;;2.65;;
25609;SDS011;13479;49.044;8.716;2023-08-24T11:32:58;4.60;;;2.80;;
25609;SDS011;13479;49.044;8.716;2023-08-24T11:35:24;7.88;;;2.70;;
25609;SDS011;13479;49.044;8.716;2023-08-24T11:37:53;9.88;;;2.90;;
25609;SDS011;13479;49.044;8.716;2023-08-24T11:40:18;5.13;;;2.25;;
25609;SDS011;13479;49.044;8.716;2023-08-24T11:42:45;11.10;;;2.90;;
25609;SDS011;13479;49.044;8.716;2023-08-24T11:45:11;7.00;;;2.80;;
25609;SDS011;13479;49.044;8.716;2023-08-24T11:47:37;8.15;;;2.70;;
25609;SDS011;13479;49.044;8.716;2023-08-24T11:50:03;6.90;;;2.67;;
25609;SDS011;13479;49.044;8.716;2023-08-24T11:52:29;3.83;;;2.40;;
25609;SDS011;13479;49.044;8.716;2023-08-24T11:54:54;5.88;;;2.58;;
25609;SDS011;13479;49.044;8.716;2023-08-24T11:57:20;6.25;;;2.50;;
25609;SDS011;13479;49.044;8.716;2023-08-24T11:59:45;10.95;;;3.20;;
25609;SDS011;13479;49.044;8.716;2023-08-24T12:02:11;3.90;;;2.53;;
25609;SDS011;13479;49.044;8.716;2023-08-24T12:04:40;8.13;;;2.78;;
25609;SDS011;13479;49.044;8.716;2023-08-24T12:07:13;5.72;;;2.60;;
25609;SDS011;13479;49.044;8.716;2023-08-24T12:09:39;4.57;;;2.60;;
25609;SDS011;13479;49.044;8.716;2023-08-24T12:12:04;7.43;;;2.85;;
25609;SDS011;13479;49.044;8.716;2023-08-24T12:14:39;8.38;;;3.05;;
25609;SDS011;13479;49.044;8.716;2023-08-24T12:17:11;4.60;;;2.50;;
25609;SDS011;13479;49.044;8.716;2023-08-24T12:19:40;6.25;;;2.83;;
25609;SDS011;13479;49.044;8.716;2023-08-24T12:22:15;5.50;;;2.60;;
25609;SDS011;13479;49.044;8.716;2023-08-24T12:24:47;3.95;;;2.47;;
25609;SDS011;13479;49.044;8.716;2023-08-24T12:27:19;6.85;;;2.97;;
25609;SDS011;13479;49.044;8.716;2023-08-24T12:29:48;5.70;;;3.05;;
25609;SDS011;13479;49.044;8.716;2023-08-24T12:32:14;6.18;;;2.78;;
25609;SDS011;13479;49.044;8.716;2023-08-24T12:34:44;7.47;;;2.70;;
25609;SDS011;13479;49.044;8.716;2023-08-24T12:37:09;9.48;;;3.00;;
25609;SDS011;13479;49.044;8.716;2023-08-24T12:39:35;4.25;;;2.60;;
25609;SDS011;13479;49.044;8.716;2023-08-24T12:42:01;5.25;;;3.17;;
25609;SDS011;13479;49.044;8.716;2023-08-24T12:44:27;7.53;;;3.40;;
25609;SDS011;13479;49.044;8.716;2023-08-24T12:46:52;5.05;;;2.63;;
25609;SDS011;13479;49.044;8.716;2023-08-24T12:49:18;6.72;;;3.30;;
25609;SDS011;13479;49.044;8.716;2023-08-24T12:51:43;5.28;;;3.10;;
25609;SDS011;13479;49.044;8.716;2023-08-24T12:54:08;6.07;;;3.10;;
25609;SDS011;13479;49.044;8.716;2023-08-24T12:56:34;7.13;;;3.20;;
25609;SDS011;13479;49.044;8.716;2023-08-24T12:59:00;5.93;;;2.90;;
25609;SDS011;13479;49.044;8.716;2023-08-24T13:01:25;5.38;;;3.00;;
25609;SDS011;13479;49.044;8.716;2023-08-24T13:03:50;5.28;;;3.10;;
25609;SDS011;13479;49.044;8.716;2023-08-24T13:06:15;6.57;;;2.95;;
25609;SDS011;13479;49.044;8.716;2023-08-24T13:08:41;5.05;;;2.80;;
25609;SDS011;13479;49.044;8.716;2023-08-24T13:11:06;5.18;;;3.13;;
25609;SDS011;13479;49.044;8.716;2023-08-24T13:13:31;7.03;;;3.15;;
25609;SDS011;13479;49.044;8.716;2023-08-24T13:15:56;8.00;;;3.25;;
25609;SDS011;13479;49.044;8.716;2023-08-24T13:18:22;9.07;;;3.90;;
25609;SDS011;13479;49.044;8.716;2023-08-24T13:20:47;6.82;;;3.55;;
25609;SDS011;13479;49.044;8.716;2023-08-24T13:23:12;7.03;;;3.67;;
25609;SDS011;13479;49.044;8.716;2023-08-24T13:25:38;8.77;;;3.30;;
25609;SDS011;13479;49.044;8.716;2023-08-24T13:28:03;6.50;;;3.33;;
25609;SDS011;13479;49.044;8.716;2023-08-24T13:30:28;6.13;;;3.10;;
25609;SDS011;13479;49.044;8.716;2023-08-24T13:32:54;4.07;;;2.80;;
25609;SDS011;13479;49.044;8.716;2023-08-24T13:35:19;6.88;;;3.00;;
25609;SDS011;13479;49.044;8.716;2023-08-24T13:37:44;8.07;;;3.10;;
25609;SDS011;13479;49.044;8.716;2023-08-24T13:40:09;6.72;;;3.47;;
25609;SDS011;13479;49.044;8.716;2023-08-24T13:42:35;7.68;;;3.85;;
25609;SDS011;13479;49.044;8.716;2023-08-24T13:45:01;13.15;;;3.67;;
25609;SDS011;13479;49.044;8.716;2023-08-24T13:47:26;6.80;;;3.65;;
25609;SDS011;13479;49.044;8.716;2023-08-24T13:49:51;8.57;;;3.85;;
25609;SDS011;13479;49.044;8.716;2023-08-24T13:52:17;9.48;;;3.20;;
25609;SDS011;13479;49.044;8.716;2023-08-24T13:54:44;7.47;;;3.67;;
25609;SDS011;13479;49.044;8.716;2023-08-24T13:57:09;7.60;;;3.33;;
25609;SDS011;13479;49.044;8.716;2023-08-24T13:59:34;6.85;;;3.50;;
25609;SDS011;13479;49.044;8.716;2023-08-24T14:01:59;10.43;;;3.67;;
25609;SDS011;13479;49.044;8.716;2023-08-24T14:04:25;9.40;;;3.55;;
25609;SDS011;13479;49.044;8.716;2023-08-24T14:06:50;10.35;;;3.40;;
25609;SDS011;13479;49.044;8.716;2023-08-24T14:09:15;6.43;;;3.60;;
25609;SDS011;13479;49.044;8.716;2023-08-24T14:11:41;7.60;;;3.40;;
25609;SDS011;13479;49.044;8.716;2023-08-24T14:14:06;10.07;;;3.33;;
25609;SDS011;13479;49.044;8.716;2023-08-24T14:16:31;6.60;;;3.30;;
25609;SDS011;13479;49.044;8.716;2023-08-24T14:18:56;10.68;;;3.80;;
25609;SDS011;13479;49.044;8.716;2023-08-24T14:21:22;7.18;;;3.50;;
25609;SDS011;13479;49.044;8.716;2023-08-24T14:23:48;8.13;;;3.38;;
25609;SDS011;13479;49.044;8.716;2023-08-24T14:26:14;6.72;;;2.97;;
25609;SDS011;13479;49.044;8.716;2023-08-24T14:28:49;9.68;;;3.80;;
25609;SDS011;13479;49.044;8.716;2023-08-24T14:31:19;9.02;;;3.95;;
25609;SDS011;13479;49.044;8.716;2023-08-24T14:33:45;13.07;;;3.58;;
25609;SDS011;13479;49.044;8.716;2023-08-24T14:36:11;16.52;;;3.88;;
25609;SDS011;13479;49.044;8.716;2023-08-24T14:38:40;9.20;;;3.50;;
25609;SDS011;13479;49.044;8.716;2023-08-24T14:41:05;17.27;;;4.50;;
25609;SDS011;13479;49.044;8.716;2023-08-24T14:43:32;35.08;;;6.97;;
25609;SDS011;13479;49.044;8.716;2023-08-24T14:45:58;18.70;;;5.95;;
25609;SDS011;13479;49.044;8.716;2023-08-24T14:48:23;14.10;;;4.03;;
25609;SDS011;13479;49.044;8.716;2023-08-24T14:50:48;10.23;;;4.40;;